createdAt,value
2023-01-06T00:01:11.004Z,101416.75
2023-01-06T00:08:42.755Z,101414.56
2023-01-06T00:16:17.427Z,101409.06
2023-01-06T00:23:49.221Z,101410.19
2023-01-06T01:03:52.541Z,101403.34
2023-01-06T01:11:43.928Z,101400.31
2023-01-06T01:19:15.752Z,101403.63
2023-01-06T01:26:47.566Z,101383.59
2023-01-06T01:34:19.515Z,101378.97
2023-01-06T01:41:51.446Z,101379.78
2023-01-06T01:49:25.901Z,101373.50
2023-01-06T01:57:05.383Z,101392.66
2023-01-06T02:04:39.272Z,101364.44
2023-01-06T02:12:12.581Z,101364.72
2023-01-06T02:20:06.754Z,101359.22
2023-01-06T02:28:07.511Z,101348.00
2023-01-06T02:36:08.068Z,101345.00
2023-01-06T02:43:57.668Z,101329.66
2023-01-06T02:51:57.757Z,101324.72
2023-01-06T02:59:37.500Z,101329.09
2023-01-06T03:07:09.944Z,101313.22
2023-01-06T03:14:47.548Z,101313.75
2023-01-06T03:22:20.033Z,101297.31
2023-01-06T03:29:51.877Z,101296.50
2023-01-06T03:37:55.417Z,101294.88
2023-01-06T03:45:50.949Z,101282.00
2023-01-06T03:53:45.506Z,101278.72
2023-01-06T04:01:17.972Z,101274.03
2023-01-06T04:08:51.357Z,101252.41
2023-01-06T04:16:23.332Z,101252.41
2023-01-06T04:23:55.399Z,101246.13
2023-01-06T04:31:27.892Z,101249.69
2023-01-06T04:39:00.261Z,101237.63
2023-01-06T04:46:31.974Z,101222.84
2023-01-06T04:54:03.789Z,101210.25
2023-01-06T05:01:36.654Z,101208.31
2023-01-06T05:09:08.713Z,101180.69
2023-01-06T05:16:40.521Z,101175.22
2023-01-06T05:24:12.342Z,101163.41
2023-01-06T05:31:44.140Z,101168.09
2023-01-06T05:39:15.947Z,101156.28
2023-01-06T05:46:47.698Z,101140.72
2023-01-06T05:54:19.692Z,101137.97
2023-01-06T06:01:51.632Z,101129.19
2023-01-06T06:09:23.472Z,101128.09
2023-01-06T06:16:56.146Z,101127.56
2023-01-06T06:24:27.868Z,101117.72
2023-01-06T06:31:59.607Z,101108.13
2023-01-06T06:39:31.410Z,101101.00
2023-01-06T06:47:03.206Z,101080.19
2023-01-06T06:54:34.979Z,101073.91
2023-01-06T07:02:07.463Z,101066.78
2023-01-06T07:09:39.326Z,101065.97
2023-01-06T07:17:11.153Z,101065.13
2023-01-06T07:24:42.899Z,101055.81
2023-01-06T07:32:14.640Z,101059.66
2023-01-06T07:39:46.392Z,101070.63
2023-01-06T07:47:18.189Z,101068.44
2023-01-06T07:54:49.903Z,101073.91
2023-01-06T08:02:22.083Z,101085.38
2023-01-06T08:09:53.961Z,101069.78
2023-01-06T08:17:25.788Z,101044.31
2023-01-06T08:24:57.551Z,101049.78
2023-01-06T08:32:29.298Z,101056.09
2023-01-06T08:40:01.113Z,101033.34
2023-01-06T08:47:32.920Z,101030.91
2023-01-06T08:55:05.083Z,101013.66
2023-01-06T09:02:36.910Z,100994.50
2023-01-06T09:10:08.907Z,100993.66
2023-01-06T09:17:40.935Z,101006.53
2023-01-06T09:25:12.793Z,101004.91
2023-01-06T09:32:48.167Z,100982.72
2023-01-06T09:40:27.242Z,100980.25
2023-01-06T09:47:59.417Z,100970.44
2023-01-06T09:55:38.971Z,100966.28
2023-01-06T10:03:15.127Z,100931.53
2023-01-06T10:11:26.342Z,100913.47
2023-01-06T10:19:24.290Z,100912.34
2023-01-06T10:27:10.360Z,100897.00
2023-01-06T10:34:42.132Z,100901.63
2023-01-06T10:43:00.145Z,100871.81
2023-01-06T10:50:33.291Z,100880.88
2023-01-06T10:58:38.456Z,100866.59
2023-01-06T11:06:29.745Z,100862.22
2023-01-06T11:14:04.740Z,100849.06
2023-01-06T11:21:48.915Z,100842.75
2023-01-06T11:29:34.849Z,100824.13
2023-01-06T11:37:06.550Z,100817.03
2023-01-06T11:44:40.173Z,100804.41
2023-01-06T11:52:31.108Z,100804.97
2023-01-06T12:00:20.344Z,100808.00
2023-01-06T12:07:52.537Z,100800.28
2023-01-06T12:15:24.272Z,100777.59
2023-01-06T12:23:02.077Z,100779.78
2023-01-06T12:30:51.148Z,100766.94
2023-01-06T12:38:46.607Z,100763.34
2023-01-06T12:46:22.555Z,100760.63
2023-01-06T12:54:06.314Z,100753.53
2023-01-06T13:02:09.608Z,100756.50
2023-01-06T13:09:59.466Z,100756.78
2023-01-06T13:17:46.679Z,100757.34
2023-01-06T13:26:11.583Z,100763.91
2023-01-06T13:34:04.575Z,100761.16
2023-01-06T13:41:37.475Z,100772.63
2023-01-06T13:49:10.414Z,100779.75
2023-01-06T13:56:42.152Z,100781.38
2023-01-06T14:04:28.898Z,100798.91
2023-01-06T14:12:10.648Z,100807.13
2023-01-06T14:19:51.865Z,100808.50
2023-01-06T14:27:45.324Z,100809.34
2023-01-06T14:35:20.116Z,100819.19
2023-01-06T14:42:51.849Z,100815.34
2023-01-06T14:50:29.826Z,100838.91
2023-01-06T14:58:06.449Z,100831.47
2023-01-06T15:05:39.138Z,100841.38
2023-01-06T15:13:27.046Z,100834.81
2023-01-06T15:20:58.816Z,100846.03
2023-01-06T15:28:34.683Z,100846.34
2023-01-06T15:36:06.752Z,100858.09
2023-01-06T15:43:42.360Z,100873.72
2023-01-06T15:51:20.175Z,100896.13
2023-01-06T15:58:53.269Z,100902.44
2023-01-06T16:06:29.847Z,100909.59
2023-01-06T16:14:01.602Z,100910.66
2023-01-06T16:21:35.245Z,100927.31
2023-01-06T16:29:26.238Z,100928.97
2023-01-06T16:36:59.219Z,100938.00
2023-01-06T16:44:31.939Z,100947.06
2023-01-06T16:52:03.643Z,100944.06
2023-01-06T16:59:36.045Z,100948.47
2023-01-06T17:07:13.904Z,100967.63
2023-01-06T17:14:45.707Z,100968.72
2023-01-06T17:22:29.267Z,100986.78
2023-01-06T17:30:01.603Z,100997.75
2023-01-06T17:37:33.531Z,101015.81
2023-01-06T17:45:31.372Z,101015.25
2023-01-06T17:53:35.767Z,101025.13
2023-01-06T18:01:09.385Z,101033.63
2023-01-06T18:08:41.206Z,101038.81
2023-01-06T18:16:33.070Z,101047.59
2023-01-06T18:24:38.474Z,101053.59
2023-01-06T18:32:31.087Z,101055.53
2023-01-06T18:40:06.732Z,101050.25
2023-01-06T18:47:41.423Z,101045.56
2023-01-06T18:55:41.510Z,101045.00
2023-01-06T19:03:31.577Z,101066.97
2023-01-06T19:11:22.531Z,101059.56
2023-01-06T19:18:57.879Z,101074.66
2023-01-06T19:26:34.305Z,101079.88
2023-01-06T19:34:06.385Z,101085.38
2023-01-06T19:41:38.117Z,101091.13
2023-01-06T19:49:18.792Z,101100.44
2023-01-06T19:56:51.024Z,101099.63
2023-01-06T20:04:25.077Z,101099.06
2023-01-06T20:11:56.938Z,101120.44
2023-01-06T20:19:28.875Z,101120.44
2023-01-06T20:27:00.678Z,101119.59
2023-01-06T20:34:32.509Z,101127.00
2023-01-06T20:42:05.545Z,101130.56
2023-01-06T20:49:38.843Z,101131.94
2023-01-06T20:57:10.637Z,101136.59
2023-01-06T21:04:42.444Z,101138.53
2023-01-06T21:12:14.304Z,101141.28
2023-01-06T21:19:46.024Z,101147.56
2023-01-06T21:27:17.776Z,101159.31
2023-01-06T21:34:49.953Z,101150.56
2023-01-06T21:42:40.090Z,101150.56
2023-01-06T21:50:12.769Z,101149.72
2023-01-06T21:57:44.621Z,101158.78
2023-01-06T22:05:16.473Z,101160.69
2023-01-06T22:12:48.804Z,101169.75
2023-01-06T22:20:20.622Z,101170.03
2023-01-06T22:27:52.489Z,101170.03
2023-01-06T22:35:24.327Z,101173.56
2023-01-06T22:42:57.147Z,101171.91
2023-01-06T22:50:28.911Z,101183.44
2023-01-06T22:58:00.806Z,101181.78
2023-01-06T23:05:32.592Z,101174.13
2023-01-06T23:13:04.494Z,101160.69
2023-01-06T23:20:36.246Z,101159.88
2023-01-06T23:28:07.983Z,101160.97
2023-01-06T23:35:39.726Z,101164.56
2023-01-06T23:43:11.635Z,101169.47
2023-01-06T23:50:50.556Z,101165.63
2023-01-06T23:58:22.419Z,101177.41
